createdAt,value
2022-09-27T00:02:28.650Z,12.60
2022-09-27T00:05:32.961Z,12.60
2022-09-27T00:08:37.660Z,12.61
2022-09-27T00:11:42.965Z,12.63
2022-09-27T00:14:45.882Z,12.58
2022-09-27T00:17:52.109Z,12.55
2022-09-27T00:20:56.422Z,12.57
2022-09-27T00:24:00.699Z,12.56
2022-09-27T00:27:03.679Z,12.53
2022-09-27T00:30:07.944Z,12.51
2022-09-27T00:33:11.484Z,12.54
2022-09-27T00:36:16.133Z,12.52
2022-09-27T00:39:20.088Z,12.52
2022-09-27T00:42:23.012Z,12.53
2022-09-27T00:45:26.186Z,12.51
2022-09-27T00:48:32.887Z,12.48
2022-09-27T00:51:40.589Z,12.43
2022-09-27T00:54:48.234Z,12.46
2022-09-27T00:57:52.544Z,12.49
2022-09-27T01:01:00.509Z,12.45
2022-09-27T01:04:09.119Z,12.42
2022-09-27T01:07:13.386Z,12.43
2022-09-27T01:10:18.468Z,12.39
2022-09-27T01:13:26.478Z,12.39
2022-09-27T01:16:37.337Z,12.40
2022-09-27T01:20:06.532Z,12.40
2022-09-27T01:23:39.640Z,12.37
2022-09-27T01:27:19.367Z,12.38
2022-09-27T01:30:28.354Z,12.38
2022-09-27T01:33:44.539Z,12.39
2022-09-27T01:36:55.050Z,12.39
2022-09-27T01:40:03.750Z,12.39
2022-09-27T01:43:14.627Z,12.40
2022-09-27T01:46:24.997Z,12.44
2022-09-27T01:49:54.862Z,12.42
2022-09-27T01:53:03.609Z,12.48
2022-09-27T01:56:20.302Z,12.49
2022-09-27T01:59:34.691Z,12.47
2022-09-27T02:03:22.044Z,12.53
2022-09-27T02:06:46.755Z,12.50
2022-09-27T02:09:58.278Z,12.48
2022-09-27T02:13:18.747Z,12.54
2022-09-27T02:16:31.863Z,12.57
2022-09-27T02:19:44.838Z,12.57
2022-09-27T02:22:54.965Z,12.58
2022-09-27T02:26:01.100Z,12.62
2022-09-27T02:29:10.553Z,12.64
2022-09-27T02:32:21.535Z,12.66
2022-09-27T02:35:30.007Z,12.68
2022-09-27T02:38:33.191Z,12.71
2022-09-27T02:41:37.792Z,12.70
2022-09-27T02:44:41.810Z,12.74
2022-09-27T02:48:12.283Z,12.70
2022-09-27T02:51:35.677Z,12.70
2022-09-27T02:54:48.569Z,12.70
2022-09-27T02:58:23.959Z,12.72
2022-09-27T03:01:53.218Z,12.74
2022-09-27T03:05:08.725Z,12.72
2022-09-27T03:08:14.924Z,12.69
2022-09-27T03:11:18.070Z,12.70
2022-09-27T03:14:21.573Z,12.77
2022-09-27T03:17:36.200Z,12.78
2022-09-27T03:20:58.498Z,12.77
2022-09-27T03:24:03.963Z,12.74
2022-09-27T03:27:07.465Z,12.72
2022-09-27T03:30:14.079Z,12.78
2022-09-27T03:33:17.176Z,12.77
2022-09-27T03:36:26.432Z,12.74
2022-09-27T03:39:30.776Z,12.75
2022-09-27T03:42:33.782Z,12.73
2022-09-27T03:45:37.298Z,12.77
2022-09-27T03:48:46.075Z,12.73
2022-09-27T03:51:49.074Z,12.72
2022-09-27T03:54:56.308Z,12.64
2022-09-27T03:58:01.842Z,12.57
2022-09-27T04:01:05.456Z,12.52
2022-09-27T04:04:11.389Z,12.48
2022-09-27T04:07:14.742Z,12.46
2022-09-27T04:10:19.265Z,12.46
2022-09-27T04:13:22.854Z,12.45
2022-09-27T04:16:30.168Z,12.37
2022-09-27T04:19:51.992Z,12.36
2022-09-27T04:22:55.898Z,12.36
2022-09-27T04:26:00.457Z,12.36
2022-09-27T04:29:22.687Z,12.35
2022-09-27T04:32:28.616Z,12.29
2022-09-27T04:36:08.069Z,12.31
2022-09-27T04:39:15.225Z,12.30
2022-09-27T04:42:21.608Z,12.28
2022-09-27T04:45:25.114Z,12.31
2022-09-27T04:48:28.149Z,12.24
2022-09-27T04:51:31.248Z,12.17
2022-09-27T04:54:34.346Z,12.15
2022-09-27T04:57:48.841Z,12.16
2022-09-27T05:00:54.566Z,12.10
2022-09-27T05:04:16.889Z,12.10
2022-09-27T05:07:24.810Z,12.04
2022-09-27T05:10:32.685Z,12.05
2022-09-27T05:13:37.340Z,12.03
2022-09-27T05:16:40.547Z,12.09
2022-09-27T05:20:04.024Z,12.04
2022-09-27T05:23:16.566Z,12.01
2022-09-27T05:26:20.023Z,12.01
2022-09-27T05:29:24.463Z,11.97
2022-09-27T05:32:45.436Z,11.92
2022-09-27T05:36:08.020Z,11.83
2022-09-27T05:39:11.450Z,11.86
2022-09-27T05:42:15.400Z,11.84
2022-09-27T05:45:20.447Z,11.78
2022-09-27T05:48:23.654Z,11.72
2022-09-27T05:51:36.411Z,11.73
2022-09-27T05:54:39.490Z,11.67
2022-09-27T05:57:42.500Z,11.67
2022-09-27T06:00:47.603Z,11.66
2022-09-27T06:04:18.265Z,11.65
2022-09-27T06:08:01.623Z,11.68
2022-09-27T06:11:13.024Z,11.68
2022-09-27T06:14:16.303Z,11.65
2022-09-27T06:17:35.301Z,11.68
2022-09-27T06:20:44.029Z,11.65
2022-09-27T06:23:54.270Z,11.65
2022-09-27T06:27:04.311Z,11.60
2022-09-27T06:30:28.211Z,11.59
2022-09-27T06:33:34.608Z,11.63
2022-09-27T06:36:39.252Z,11.54
2022-09-27T06:39:42.484Z,11.55
2022-09-27T06:43:10.727Z,11.60
2022-09-27T06:46:31.296Z,11.58
2022-09-27T06:49:55.813Z,11.52
2022-09-27T06:52:59.751Z,11.54
2022-09-27T06:56:04.043Z,11.55
2022-09-27T06:59:35.958Z,11.51
2022-09-27T07:03:01.187Z,11.49
2022-09-27T07:06:22.767Z,11.51
2022-09-27T07:09:40.219Z,11.50
2022-09-27T07:12:44.512Z,11.50
2022-09-27T07:15:47.511Z,11.51
2022-09-27T07:18:51.735Z,11.60
2022-09-27T07:21:56.025Z,11.63
2022-09-27T07:25:00.251Z,11.70
2022-09-27T07:28:06.148Z,11.77
2022-09-27T07:31:10.406Z,11.73
2022-09-27T07:34:13.599Z,11.61
2022-09-27T07:37:18.112Z,11.65
2022-09-27T07:40:21.866Z,11.68
2022-09-27T07:43:25.313Z,11.71
2022-09-27T07:46:28.325Z,11.74
2022-09-27T07:49:34.066Z,11.72
2022-09-27T07:52:53.609Z,11.72
2022-09-27T07:56:29.035Z,11.71
2022-09-27T07:59:32.459Z,11.71
2022-09-27T08:02:36.276Z,11.72
2022-09-27T08:05:41.729Z,11.76
2022-09-27T08:08:47.381Z,11.81
2022-09-27T08:11:50.514Z,11.82
2022-09-27T08:14:54.636Z,11.80
2022-09-27T08:17:58.713Z,11.79
2022-09-27T08:21:21.696Z,11.79
2022-09-27T08:24:48.071Z,11.84
2022-09-27T08:28:01.108Z,11.80
2022-09-27T08:31:11.750Z,11.78
2022-09-27T08:34:15.026Z,11.82
2022-09-27T08:37:18.907Z,11.89
2022-09-27T08:40:27.528Z,11.92
2022-09-27T08:43:39.797Z,11.89
2022-09-27T08:46:54.972Z,11.95
2022-09-27T08:50:03.922Z,11.97
2022-09-27T08:53:19.370Z,12.04
2022-09-27T08:56:24.623Z,12.06
2022-09-27T08:59:31.624Z,12.00
2022-09-27T09:02:37.191Z,12.09
2022-09-27T09:05:40.600Z,12.08
2022-09-27T09:09:00.945Z,12.08
2022-09-27T09:12:38.090Z,12.07
2022-09-27T09:15:56.449Z,12.11
2022-09-27T09:19:23.331Z,12.18
2022-09-27T09:23:19.632Z,12.25
2022-09-27T09:26:33.005Z,12.30
2022-09-27T09:30:05.984Z,12.38
2022-09-27T09:33:23.052Z,12.48
2022-09-27T09:36:32.643Z,12.44
2022-09-27T09:39:41.625Z,12.50
2022-09-27T09:42:51.018Z,12.55
2022-09-27T09:46:04.706Z,12.62
2022-09-27T09:49:19.446Z,12.62
2022-09-27T09:52:28.238Z,12.58
2022-09-27T09:55:34.726Z,12.66
2022-09-27T09:58:45.981Z,12.62
2022-09-27T10:01:57.394Z,12.73
2022-09-27T10:05:06.777Z,12.83
2022-09-27T10:08:22.090Z,12.89
2022-09-27T10:11:38.487Z,12.99
2022-09-27T10:14:50.137Z,13.00
2022-09-27T10:17:58.075Z,13.03
2022-09-27T10:21:06.663Z,13.02
2022-09-27T10:24:17.840Z,13.03
2022-09-27T10:27:43.475Z,13.08
2022-09-27T10:30:57.036Z,13.13
2022-09-27T10:34:05.206Z,13.24
2022-09-27T10:37:19.260Z,13.21
2022-09-27T10:40:53.226Z,13.29
2022-09-27T10:43:56.329Z,13.27
2022-09-27T10:47:10.298Z,13.39
2022-09-27T10:54:01.052Z,13.78
2022-09-27T10:57:21.386Z,14.05
2022-09-27T11:00:27.708Z,14.47
2022-09-27T11:03:32.884Z,14.58
2022-09-27T11:06:39.230Z,14.81
2022-09-27T11:09:52.766Z,14.71
2022-09-27T11:13:17.667Z,14.61
2022-09-27T11:16:46.089Z,14.58
2022-09-27T11:20:07.496Z,14.43
2022-09-27T11:23:49.173Z,14.42
2022-09-27T11:27:10.802Z,14.40
2022-09-27T11:30:17.445Z,14.26
2022-09-27T11:34:02.549Z,14.21
2022-09-27T11:37:19.483Z,14.09
2022-09-27T11:41:08.940Z,14.02
2022-09-27T11:44:48.244Z,14.02
2022-09-27T11:48:05.227Z,14.00
2022-09-27T11:51:29.518Z,13.95
2022-09-27T11:54:51.585Z,13.87
2022-09-27T11:58:05.807Z,13.44
2022-09-27T12:01:28.727Z,12.05
2022-09-27T12:05:04.151Z,11.66
2022-09-27T12:08:27.467Z,11.41
2022-09-27T12:11:38.762Z,11.16
2022-09-27T12:14:47.140Z,11.14
2022-09-27T12:17:55.701Z,11.08
2022-09-27T12:21:03.349Z,11.14
2022-09-27T12:24:08.185Z,11.16
2022-09-27T12:27:20.524Z,11.18
2022-09-27T12:30:24.856Z,11.20
2022-09-27T12:33:35.453Z,11.29
2022-09-27T12:36:45.436Z,11.33
2022-09-27T12:39:54.203Z,11.61
2022-09-27T12:43:09.064Z,11.91
2022-09-27T12:46:45.406Z,12.08
2022-09-27T12:50:01.652Z,12.20
2022-09-27T12:53:11.551Z,12.35
2022-09-27T12:56:30.301Z,12.46
2022-09-27T12:59:56.882Z,12.47
2022-09-27T13:03:26.138Z,12.28
2022-09-27T13:06:55.593Z,12.46
2022-09-27T13:10:24.834Z,12.57
2022-09-27T13:13:34.235Z,12.69
2022-09-27T13:16:44.677Z,12.79
2022-09-27T13:19:51.058Z,12.68
2022-09-27T13:22:54.719Z,12.51
2022-09-27T13:26:25.801Z,12.70
2022-09-27T13:29:34.693Z,12.60
2022-09-27T13:33:38.412Z,12.53
2022-09-27T13:36:43.380Z,12.50
2022-09-27T13:39:48.097Z,12.68
2022-09-27T13:43:36.836Z,12.90
2022-09-27T13:46:55.914Z,12.87
2022-09-27T13:50:16.682Z,12.65
2022-09-27T13:53:33.913Z,12.69
2022-09-27T13:56:56.151Z,12.68
2022-09-27T14:00:05.103Z,12.59
2022-09-27T14:03:32.314Z,12.61
2022-09-27T14:06:44.968Z,12.69
2022-09-27T14:09:54.059Z,12.60
2022-09-27T14:13:04.352Z,12.60
2022-09-27T14:16:10.915Z,12.59
2022-09-27T14:19:19.514Z,12.57
2022-09-27T14:22:25.245Z,12.57
2022-09-27T14:25:34.635Z,12.49
2022-09-27T14:28:42.610Z,12.55
2022-09-27T14:32:05.799Z,12.56
2022-09-27T14:35:41.825Z,12.63
2022-09-27T14:38:44.956Z,13.15
2022-09-27T14:41:57.692Z,13.60
2022-09-27T14:45:06.373Z,13.79
2022-09-27T14:48:23.693Z,13.53
2022-09-27T14:51:30.726Z,13.45
2022-09-27T14:54:33.819Z,13.24
2022-09-27T14:57:40.000Z,13.06
2022-09-27T15:00:49.348Z,12.99
2022-09-27T15:03:53.668Z,13.06
2022-09-27T15:06:57.547Z,13.15
2022-09-27T15:10:00.584Z,13.03
2022-09-27T15:13:07.263Z,13.09
2022-09-27T15:16:17.197Z,13.03
2022-09-27T15:19:26.917Z,13.04
2022-09-27T15:22:48.270Z,12.93
2022-09-27T15:26:11.297Z,12.96
2022-09-27T15:29:23.020Z,12.86
2022-09-27T15:32:28.498Z,12.84
2022-09-27T15:35:34.237Z,12.78
2022-09-27T15:38:40.552Z,12.80
2022-09-27T15:42:05.967Z,12.71
2022-09-27T15:45:30.025Z,12.70
2022-09-27T15:48:35.679Z,12.63
2022-09-27T15:51:42.855Z,12.64
2022-09-27T15:54:45.822Z,12.58
2022-09-27T15:57:52.387Z,12.49
2022-09-27T16:00:59.485Z,12.50
2022-09-27T16:04:02.834Z,12.52
2022-09-27T16:07:08.974Z,12.31
2022-09-27T16:10:15.082Z,12.30
2022-09-27T16:13:18.081Z,12.09
2022-09-27T16:16:23.416Z,11.94
2022-09-27T16:19:26.740Z,11.80
2022-09-27T16:22:30.538Z,11.65
2022-09-27T16:25:33.721Z,11.62
2022-09-27T16:28:37.989Z,11.57
2022-09-27T16:31:42.866Z,11.55
2022-09-27T16:34:45.944Z,11.61
2022-09-27T16:37:49.131Z,11.64
2022-09-27T16:40:52.712Z,11.53
2022-09-27T16:43:55.698Z,11.51
2022-09-27T16:47:00.127Z,11.51
2022-09-27T16:50:20.883Z,11.54
2022-09-27T16:53:24.279Z,11.47
2022-09-27T16:56:28.475Z,11.49
2022-09-27T16:59:32.799Z,11.48
2022-09-27T17:02:37.084Z,11.41
2022-09-27T17:05:40.038Z,11.44
2022-09-27T17:08:43.354Z,11.32
2022-09-27T17:11:46.426Z,11.31
2022-09-27T17:14:49.399Z,11.25
2022-09-27T17:17:53.715Z,11.20
2022-09-27T17:21:02.465Z,11.26
2022-09-27T17:24:06.404Z,11.28
2022-09-27T17:27:09.353Z,11.21
2022-09-27T17:30:13.852Z,11.22
2022-09-27T17:33:20.356Z,11.19
2022-09-27T17:36:25.761Z,11.14
2022-09-27T17:39:29.314Z,11.11
2022-09-27T17:42:33.012Z,11.05
2022-09-27T17:45:36.006Z,10.99
2022-09-27T17:48:58.415Z,10.98
2022-09-27T17:52:01.669Z,10.87
2022-09-27T17:55:05.711Z,10.88
2022-09-27T17:58:09.816Z,10.77
2022-09-27T18:01:16.447Z,10.73
2022-09-27T18:04:20.953Z,10.65
2022-09-27T18:07:23.930Z,10.65
2022-09-27T18:10:27.452Z,10.62
2022-09-27T18:13:39.076Z,10.59
2022-09-27T18:16:44.410Z,10.60
2022-09-27T18:19:49.614Z,10.55
2022-09-27T18:22:53.618Z,10.61
2022-09-27T18:25:58.084Z,10.62
2022-09-27T18:29:07.842Z,10.64
2022-09-27T18:32:16.549Z,10.68
2022-09-27T18:35:24.834Z,10.67
2022-09-27T18:38:27.976Z,10.68
2022-09-27T18:41:34.502Z,10.70
2022-09-27T18:44:38.918Z,10.69
2022-09-27T18:47:42.517Z,10.64
2022-09-27T18:50:47.962Z,10.57
2022-09-27T18:53:57.198Z,10.52
2022-09-27T18:57:00.925Z,10.45
2022-09-27T19:00:05.980Z,10.40
2022-09-27T19:03:21.164Z,10.43
2022-09-27T19:06:40.029Z,10.43
2022-09-27T19:09:47.801Z,10.31
2022-09-27T19:12:51.214Z,10.32
2022-09-27T19:16:03.754Z,10.25
2022-09-27T19:19:07.465Z,10.22
2022-09-27T19:22:12.273Z,10.17
2022-09-27T19:25:17.287Z,10.21
2022-09-27T19:28:21.332Z,10.20
2022-09-27T19:31:27.065Z,10.11
2022-09-27T19:34:30.184Z,10.13
2022-09-27T19:37:34.747Z,10.17
2022-09-27T19:40:41.680Z,10.18
2022-09-27T19:43:47.352Z,10.17
2022-09-27T19:46:50.593Z,10.09
2022-09-27T19:49:54.099Z,10.08
2022-09-27T19:52:59.215Z,9.96
2022-09-27T19:56:05.662Z,9.89
2022-09-27T19:59:14.116Z,9.87
2022-09-27T20:02:18.061Z,9.90
2022-09-27T20:05:22.694Z,9.87
2022-09-27T20:08:31.740Z,9.87
2022-09-27T20:11:39.349Z,9.81
2022-09-27T20:14:43.936Z,9.79
2022-09-27T20:17:47.483Z,9.75
2022-09-27T20:21:07.778Z,9.64
2022-09-27T20:24:23.811Z,9.56
2022-09-27T20:27:27.464Z,9.60
2022-09-27T20:30:31.335Z,9.61
2022-09-27T20:33:44.072Z,9.61
2022-09-27T20:36:47.019Z,9.58
2022-09-27T20:39:52.562Z,9.54
2022-09-27T20:42:55.492Z,9.58
2022-09-27T20:46:02.459Z,9.47
2022-09-27T20:49:07.920Z,9.40
2022-09-27T20:52:10.849Z,9.38
2022-09-27T20:55:15.520Z,9.41
2022-09-27T20:58:18.452Z,9.49
2022-09-27T21:01:22.790Z,9.50
2022-09-27T21:04:25.831Z,9.56
2022-09-27T21:07:28.766Z,9.59
2022-09-27T21:10:33.652Z,9.53
2022-09-27T21:13:38.677Z,9.55
2022-09-27T21:16:41.827Z,9.52
2022-09-27T21:19:44.817Z,9.48
2022-09-27T21:22:47.776Z,9.61
2022-09-27T21:26:05.531Z,9.69
2022-09-27T21:29:11.607Z,9.62
2022-09-27T21:32:14.606Z,9.65
2022-09-27T21:35:18.106Z,9.60
2022-09-27T21:38:21.163Z,9.63
2022-09-27T21:41:26.289Z,9.64
2022-09-27T21:44:29.216Z,9.66
2022-09-27T21:47:34.454Z,9.65
2022-09-27T21:50:37.352Z,9.62
2022-09-27T21:53:44.245Z,9.59
2022-09-27T21:56:48.492Z,9.43
2022-09-27T21:59:51.608Z,9.38
2022-09-27T22:02:58.012Z,9.35
2022-09-27T22:06:01.005Z,9.41
2022-09-27T22:09:07.050Z,9.40
2022-09-27T22:12:11.635Z,9.40
2022-09-27T22:15:14.825Z,9.41
2022-09-27T22:18:18.155Z,9.37
2022-09-27T22:21:23.945Z,9.41
2022-09-27T22:24:27.011Z,9.28
2022-09-27T22:27:31.825Z,9.21
2022-09-27T22:30:35.203Z,9.16
2022-09-27T22:33:38.569Z,9.07
2022-09-27T22:36:42.237Z,9.02
2022-09-27T22:39:45.168Z,9.02
2022-09-27T22:42:49.394Z,9.04
2022-09-27T22:45:52.473Z,9.03
2022-09-27T22:48:55.967Z,8.90
2022-09-27T22:51:58.923Z,8.93
2022-09-27T22:55:01.855Z,8.87
2022-09-27T22:58:06.187Z,8.83
2022-09-27T23:01:10.336Z,8.79
2022-09-27T23:04:14.038Z,8.77
2022-09-27T23:07:17.191Z,8.79
2022-09-27T23:10:22.246Z,8.76
2022-09-27T23:13:31.194Z,8.66
2022-09-27T23:16:35.922Z,8.68
2022-09-27T23:19:38.993Z,8.69
2022-09-27T23:22:41.959Z,8.76
2022-09-27T23:25:44.875Z,8.84
2022-09-27T23:28:53.385Z,8.86
2022-09-27T23:31:56.306Z,8.85
2022-09-27T23:34:59.253Z,8.89
2022-09-27T23:38:02.202Z,8.91
2022-09-27T23:41:05.328Z,8.93
2022-09-27T23:44:09.568Z,8.95
2022-09-27T23:47:12.523Z,8.98
2022-09-27T23:50:15.581Z,8.97
2022-09-27T23:53:18.704Z,8.92
2022-09-27T23:56:21.613Z,8.97
2022-09-27T23:59:27.774Z,8.94
